createdAt,value
2022-09-28T00:01:33.094Z,67.75
2022-09-28T00:04:34.910Z,67.28
2022-09-28T00:07:50.042Z,67.52
2022-09-28T00:11:05.064Z,68.23
2022-09-28T00:14:14.052Z,67.79
2022-09-28T00:17:29.097Z,68.05
2022-09-28T00:20:37.654Z,67.74
2022-09-28T00:23:48.151Z,67.27
2022-09-28T00:26:58.051Z,66.81
2022-09-28T00:30:06.052Z,67.02
2022-09-28T00:33:21.073Z,67.47
2022-09-28T00:36:31.251Z,66.75
2022-09-28T00:39:39.088Z,66.76
2022-09-28T00:43:01.107Z,67.26
2022-09-28T00:46:25.055Z,66.65
2022-09-28T00:49:33.769Z,66.81
2022-09-28T00:53:12.128Z,66.98
2022-09-28T00:56:25.380Z,67.86
2022-09-28T00:59:34.083Z,67.22
2022-09-28T01:02:44.587Z,67.66
2022-09-28T01:05:55.093Z,68.22
2022-09-28T01:09:14.204Z,68.35
2022-09-28T01:12:22.704Z,68.62
2022-09-28T01:15:33.123Z,68.27
2022-09-28T01:19:01.711Z,67.72
2022-09-28T01:22:35.092Z,67.66
2022-09-28T01:25:56.872Z,66.49
2022-09-28T01:29:22.092Z,65.88
2022-09-28T01:32:56.367Z,66.21
2022-09-28T01:36:22.139Z,65.96
2022-09-28T01:39:43.113Z,65.98
2022-09-28T01:42:55.119Z,66.59
2022-09-28T01:46:23.117Z,67.52
2022-09-28T01:49:51.135Z,67.71
2022-09-28T01:53:15.100Z,67.88
2022-09-28T01:56:39.170Z,67.54
2022-09-28T01:59:57.600Z,67.71
2022-09-28T02:03:15.136Z,68.78
2022-09-28T02:06:38.122Z,68.96
2022-09-28T02:09:53.574Z,68.50
2022-09-28T02:13:09.170Z,69.06
2022-09-28T02:16:39.260Z,68.40
2022-09-28T02:19:48.109Z,68.63
2022-09-28T02:23:06.127Z,67.80
2022-09-28T02:26:25.122Z,67.71
2022-09-28T02:29:26.898Z,67.69
2022-09-28T02:32:45.120Z,67.70
2022-09-28T02:36:00.139Z,68.02
2022-09-28T02:39:02.402Z,68.14
2022-09-28T02:42:27.143Z,67.44
2022-09-28T02:45:45.638Z,67.85
2022-09-28T02:49:22.235Z,67.72
2022-09-28T02:52:55.127Z,68.85
2022-09-28T02:56:20.135Z,68.34
2022-09-28T02:59:46.804Z,66.61
2022-09-28T03:03:16.186Z,67.72
2022-09-28T03:06:40.140Z,66.91
2022-09-28T03:09:59.507Z,67.51
2022-09-28T03:13:09.152Z,66.99
2022-09-28T03:16:26.253Z,67.13
2022-09-28T03:19:35.060Z,67.65
2022-09-28T03:22:43.255Z,68.81
2022-09-28T03:25:51.947Z,67.80
2022-09-28T03:29:07.159Z,66.37
2022-09-28T03:32:08.951Z,65.14
2022-09-28T03:35:24.186Z,64.54
2022-09-28T03:38:32.157Z,64.61
2022-09-28T03:41:47.177Z,64.03
2022-09-28T03:44:55.755Z,64.55
2022-09-28T03:48:04.188Z,63.84
2022-09-28T03:51:19.424Z,63.18
2022-09-28T03:54:34.150Z,63.64
2022-09-28T03:57:35.946Z,63.01
2022-09-28T04:00:50.311Z,63.09
2022-09-28T04:04:01.167Z,64.74
2022-09-28T04:07:16.206Z,63.43
2022-09-28T04:10:26.029Z,64.67
2022-09-28T04:13:36.220Z,63.60
2022-09-28T04:16:51.251Z,62.79
2022-09-28T04:20:06.187Z,63.87
2022-09-28T04:23:08.308Z,64.03
2022-09-28T04:26:26.206Z,64.66
2022-09-28T04:29:34.214Z,63.67
2022-09-28T04:32:42.984Z,64.23
2022-09-28T04:35:57.184Z,63.93
2022-09-28T04:38:59.368Z,64.96
2022-09-28T04:42:17.224Z,65.38
2022-09-28T04:45:25.278Z,64.98
2022-09-28T04:48:40.214Z,64.87
2022-09-28T04:51:55.488Z,65.39
2022-09-28T04:55:04.187Z,66.03
2022-09-28T04:58:19.235Z,66.84
2022-09-28T05:01:34.320Z,66.37
2022-09-28T05:04:36.120Z,66.51
2022-09-28T05:07:51.195Z,66.60
2022-09-28T05:11:02.023Z,66.12
2022-09-28T05:14:10.200Z,66.56
2022-09-28T05:17:18.758Z,66.66
2022-09-28T05:20:27.207Z,65.93
2022-09-28T05:23:42.212Z,66.57
2022-09-28T05:26:57.255Z,66.67
2022-09-28T05:29:59.009Z,65.70
2022-09-28T05:33:15.215Z,66.74
2022-09-28T05:36:30.279Z,65.82
2022-09-28T05:39:38.231Z,64.35
2022-09-28T05:42:46.941Z,64.16
2022-09-28T05:45:55.918Z,62.72
2022-09-28T05:49:04.923Z,63.67
2022-09-28T05:52:27.232Z,64.01
2022-09-28T05:55:29.101Z,63.15
2022-09-28T05:58:44.256Z,64.10
2022-09-28T06:01:52.867Z,63.05
2022-09-28T06:05:01.281Z,63.40
2022-09-28T06:08:10.481Z,63.55
2022-09-28T06:11:25.451Z,63.95
2022-09-28T06:14:34.648Z,63.25
2022-09-28T06:17:49.311Z,63.19
2022-09-28T06:20:51.275Z,63.88
2022-09-28T06:24:06.266Z,63.83
2022-09-28T06:27:21.285Z,62.34
2022-09-28T06:30:23.853Z,61.70
2022-09-28T06:33:38.300Z,61.59
2022-09-28T06:36:53.306Z,62.04
2022-09-28T06:39:55.424Z,60.92
2022-09-28T06:43:18.371Z,60.66
2022-09-28T06:46:26.975Z,60.81
2022-09-28T06:49:36.304Z,61.94
2022-09-28T06:52:44.964Z,63.20
2022-09-28T06:55:54.355Z,63.11
2022-09-28T06:59:03.830Z,61.99
2022-09-28T07:02:19.312Z,61.70
2022-09-28T07:05:21.178Z,61.47
2022-09-28T07:08:41.315Z,61.63
2022-09-28T07:11:49.367Z,61.13
2022-09-28T07:14:57.983Z,60.45
2022-09-28T07:18:14.356Z,61.14
2022-09-28T07:21:28.168Z,61.28
2022-09-28T07:24:44.284Z,60.96
2022-09-28T07:27:52.348Z,60.76
2022-09-28T07:31:00.963Z,60.19
2022-09-28T07:34:09.337Z,60.39
2022-09-28T07:37:17.911Z,59.92
2022-09-28T07:40:26.337Z,60.05
2022-09-28T07:43:41.349Z,59.51
2022-09-28T07:46:43.142Z,59.48
2022-09-28T07:50:05.331Z,59.13
2022-09-28T07:53:14.017Z,59.04
2022-09-28T07:56:25.336Z,59.22
2022-09-28T07:59:40.602Z,59.12
2022-09-28T08:02:42.775Z,58.65
2022-09-28T08:05:57.442Z,59.09
2022-09-28T08:09:06.310Z,59.54
2022-09-28T08:12:15.357Z,60.38
2022-09-28T08:15:30.377Z,63.41
2022-09-28T08:18:38.970Z,59.65
2022-09-28T08:21:47.333Z,61.54
2022-09-28T08:24:55.883Z,57.27
2022-09-28T08:28:04.319Z,57.30
2022-09-28T08:31:13.283Z,58.36
2022-09-28T08:34:28.354Z,60.30
2022-09-28T08:37:30.392Z,57.82
2022-09-28T08:41:03.494Z,59.09
2022-09-28T08:44:18.140Z,57.80
2022-09-28T08:47:31.539Z,58.96
2022-09-28T08:51:02.357Z,56.19
2022-09-28T08:54:17.798Z,57.06
2022-09-28T08:57:40.424Z,56.40
2022-09-28T09:00:51.610Z,57.40
2022-09-28T09:04:00.360Z,58.53
2022-09-28T09:07:26.258Z,56.75
2022-09-28T09:10:56.367Z,56.79
2022-09-28T09:14:34.459Z,57.40
2022-09-28T09:18:19.834Z,57.78
2022-09-28T09:21:47.401Z,56.54
2022-09-28T09:25:25.352Z,56.95
2022-09-28T09:29:14.186Z,57.10
2022-09-28T09:32:43.392Z,56.29
2022-09-28T09:36:17.331Z,55.75
2022-09-28T09:39:52.655Z,56.86
2022-09-28T09:43:27.985Z,56.34
2022-09-28T09:46:53.376Z,56.74
2022-09-28T09:50:23.327Z,56.99
2022-09-28T09:53:46.385Z,55.55
2022-09-28T09:57:10.589Z,56.06
2022-09-28T10:00:26.447Z,55.99
2022-09-28T10:03:37.405Z,55.42
2022-09-28T10:06:48.076Z,53.00
2022-09-28T10:09:57.436Z,55.36
2022-09-28T10:13:06.107Z,52.35
2022-09-28T10:16:22.495Z,53.86
2022-09-28T10:19:41.448Z,54.37
2022-09-28T10:22:52.083Z,55.70
2022-09-28T10:26:13.397Z,55.52
2022-09-28T10:29:20.204Z,53.71
2022-09-28T10:32:48.507Z,53.54
2022-09-28T10:35:57.399Z,53.50
2022-09-28T10:39:06.354Z,52.57
2022-09-28T10:42:29.480Z,52.02
2022-09-28T10:45:43.438Z,51.84
2022-09-28T10:49:08.379Z,51.62
2022-09-28T10:52:42.454Z,52.33
2022-09-28T10:55:57.637Z,52.47
2022-09-28T10:59:32.604Z,52.78
2022-09-28T11:02:47.479Z,52.54
2022-09-28T11:05:54.987Z,52.74
2022-09-28T11:09:14.434Z,53.97
2022-09-28T11:12:20.564Z,55.05
2022-09-28T11:15:41.572Z,55.19
2022-09-28T11:18:56.435Z,54.36
2022-09-28T11:21:58.440Z,53.87
2022-09-28T11:25:30.501Z,51.11
2022-09-28T11:28:36.453Z,52.15
2022-09-28T11:31:53.439Z,49.73
2022-09-28T11:35:03.941Z,34.71
2022-09-28T11:38:34.462Z,36.26
2022-09-28T11:42:04.536Z,33.19
2022-09-28T11:45:32.280Z,31.35
2022-09-28T11:48:51.074Z,33.43
2022-09-28T11:52:39.804Z,34.06
2022-09-28T11:55:57.279Z,42.05
2022-09-28T11:59:12.791Z,46.15
2022-09-28T12:02:55.684Z,38.46
2022-09-28T12:06:16.110Z,40.51
2022-09-28T12:09:44.508Z,35.04
2022-09-28T12:13:01.378Z,41.15
2022-09-28T12:17:03.637Z,36.92
2022-09-28T12:20:30.451Z,39.28
2022-09-28T12:23:43.436Z,31.01
2022-09-28T12:27:01.703Z,30.20
2022-09-28T12:30:23.441Z,28.12
2022-09-28T12:33:32.692Z,31.87
2022-09-28T12:37:01.557Z,30.48
2022-09-28T12:40:36.567Z,32.94
2022-09-28T12:44:05.055Z,40.82
2022-09-28T12:47:38.459Z,44.75
2022-09-28T12:51:25.630Z,47.17
2022-09-28T12:54:52.694Z,47.96
2022-09-28T12:58:28.493Z,47.42
2022-09-28T13:02:04.598Z,47.65
2022-09-28T13:05:27.440Z,48.06
2022-09-28T13:08:59.735Z,48.15
2022-09-28T13:12:25.512Z,48.45
2022-09-28T13:15:43.788Z,48.33
2022-09-28T13:19:17.608Z,48.47
2022-09-28T13:22:46.508Z,49.36
2022-09-28T13:26:15.060Z,49.50
2022-09-28T13:29:25.476Z,49.70
2022-09-28T13:32:36.993Z,49.62
2022-09-28T13:35:49.485Z,49.27
2022-09-28T13:38:59.820Z,49.03
2022-09-28T13:42:16.479Z,48.57
2022-09-28T13:45:48.524Z,49.14
2022-09-28T13:49:22.523Z,48.76
2022-09-28T13:52:51.063Z,49.01
2022-09-28T13:56:10.520Z,48.77
2022-09-28T13:59:32.612Z,49.12
2022-09-28T14:02:42.203Z,49.70
2022-09-28T14:06:27.537Z,49.66
2022-09-28T14:09:52.830Z,48.91
2022-09-28T14:12:54.635Z,48.78
2022-09-28T14:16:28.608Z,48.07
2022-09-28T14:19:34.010Z,47.75
2022-09-28T14:23:08.540Z,47.47
2022-09-28T14:26:53.559Z,48.06
2022-09-28T14:30:23.535Z,47.65
2022-09-28T14:33:39.547Z,47.34
2022-09-28T14:36:47.865Z,47.62
2022-09-28T14:40:02.548Z,47.20
2022-09-28T14:43:31.546Z,47.09
2022-09-28T14:46:43.621Z,47.74
2022-09-28T14:50:11.399Z,48.28
2022-09-28T14:53:31.539Z,49.04
2022-09-28T14:56:55.538Z,50.43
2022-09-28T15:00:15.008Z,50.77
2022-09-28T15:03:23.559Z,50.99
2022-09-28T15:06:53.631Z,51.96
2022-09-28T15:10:02.193Z,51.26
2022-09-28T15:13:22.562Z,52.13
2022-09-28T15:16:38.556Z,52.06
2022-09-28T15:19:57.163Z,52.06
2022-09-28T15:23:11.560Z,52.72
2022-09-28T15:26:24.963Z,52.77
2022-09-28T15:29:39.564Z,52.78
2022-09-28T15:32:55.642Z,52.94
2022-09-28T15:36:05.516Z,53.42
2022-09-28T15:39:27.572Z,53.72
2022-09-28T15:42:42.588Z,54.17
2022-09-28T15:45:58.397Z,53.73
2022-09-28T15:49:28.595Z,53.76
2022-09-28T15:52:52.563Z,53.63
2022-09-28T15:56:10.566Z,53.85
2022-09-28T15:59:27.399Z,54.66
2022-09-28T16:02:42.749Z,54.20
2022-09-28T16:06:02.574Z,54.13
2022-09-28T16:09:31.343Z,53.90
2022-09-28T16:12:51.592Z,54.13
2022-09-28T16:16:03.648Z,54.08
2022-09-28T16:19:23.994Z,54.37
2022-09-28T16:22:38.563Z,54.50
2022-09-28T16:25:50.058Z,55.00
2022-09-28T16:29:05.600Z,55.41
2022-09-28T16:32:34.594Z,55.59
2022-09-28T16:35:52.030Z,56.03
2022-09-28T16:39:06.582Z,56.27
2022-09-28T16:42:08.638Z,55.95
2022-09-28T16:45:26.571Z,55.91
2022-09-28T16:48:32.115Z,56.22
2022-09-28T16:51:46.755Z,56.68
2022-09-28T16:55:04.940Z,57.05
2022-09-28T16:58:12.227Z,57.43
2022-09-28T17:01:27.683Z,57.63
2022-09-28T17:04:37.624Z,57.78
2022-09-28T17:07:46.637Z,57.22
2022-09-28T17:11:16.868Z,57.40
2022-09-28T17:14:33.610Z,56.87
2022-09-28T17:17:35.452Z,57.47
2022-09-28T17:20:55.640Z,58.62
2022-09-28T17:23:57.524Z,59.92
2022-09-28T17:27:12.627Z,59.86
2022-09-28T17:30:25.101Z,60.44
2022-09-28T17:33:40.623Z,61.00
2022-09-28T17:36:43.961Z,61.86
2022-09-28T17:39:58.674Z,61.97
2022-09-28T17:43:00.543Z,62.80
2022-09-28T17:46:36.752Z,63.24
2022-09-28T17:49:51.613Z,63.68
2022-09-28T17:53:07.621Z,64.51
2022-09-28T17:56:16.525Z,64.98
2022-09-28T17:59:31.696Z,65.69
2022-09-28T18:02:33.616Z,66.90
2022-09-28T18:05:53.599Z,67.12
2022-09-28T18:09:09.673Z,68.88
2022-09-28T18:12:17.612Z,69.70
2022-09-28T18:15:26.216Z,71.90
2022-09-28T18:18:34.636Z,71.56
2022-09-28T18:21:49.667Z,72.39
2022-09-28T18:25:04.683Z,73.12
2022-09-28T18:28:13.653Z,73.74
2022-09-28T18:31:22.511Z,73.64
2022-09-28T18:34:37.665Z,74.89
2022-09-28T18:37:40.027Z,75.89
2022-09-28T18:40:54.738Z,76.50
2022-09-28T18:44:02.644Z,77.45
2022-09-28T18:47:20.855Z,77.84
2022-09-28T18:50:42.668Z,77.46
2022-09-28T18:53:57.665Z,77.90
2022-09-28T18:57:06.392Z,79.01
2022-09-28T19:00:21.665Z,79.98
2022-09-28T19:03:29.659Z,80.05
2022-09-28T19:06:47.695Z,80.86
2022-09-28T19:10:02.669Z,80.97
2022-09-28T19:13:04.474Z,81.54
2022-09-28T19:16:25.653Z,82.26
2022-09-28T19:19:33.675Z,82.14
2022-09-28T19:22:48.667Z,82.17
2022-09-28T19:25:57.279Z,83.11
2022-09-28T19:29:05.689Z,83.36
2022-09-28T19:32:20.679Z,84.34
2022-09-28T19:35:35.690Z,84.25
2022-09-28T19:38:39.193Z,85.43
2022-09-28T19:41:53.683Z,84.58
2022-09-28T19:44:55.655Z,84.29
2022-09-28T19:48:11.703Z,85.02
2022-09-28T19:51:26.980Z,85.17
2022-09-28T19:54:36.675Z,84.78
2022-09-28T19:57:51.688Z,85.18
2022-09-28T20:01:00.361Z,84.30
2022-09-28T20:04:08.735Z,85.03
2022-09-28T20:07:23.710Z,85.64
2022-09-28T20:10:25.479Z,86.99
2022-09-28T20:13:42.708Z,87.26
2022-09-28T20:16:57.716Z,87.44
2022-09-28T20:19:59.483Z,86.79
2022-09-28T20:23:14.743Z,87.63
2022-09-28T20:26:23.941Z,87.09
2022-09-28T20:29:31.906Z,87.09
2022-09-28T20:32:40.243Z,87.03
2022-09-28T20:35:48.716Z,86.94
2022-09-28T20:39:04.718Z,87.11
2022-09-28T20:42:19.708Z,87.59
2022-09-28T20:45:27.746Z,87.66
2022-09-28T20:48:37.266Z,87.83
2022-09-28T20:51:51.743Z,87.80
2022-09-28T20:54:53.438Z,87.99
2022-09-28T20:58:09.729Z,87.58
2022-09-28T21:01:24.828Z,87.81
2022-09-28T21:04:39.748Z,87.94
2022-09-28T21:07:48.298Z,87.90
2022-09-28T21:10:57.812Z,87.99
2022-09-28T21:14:13.740Z,88.09
2022-09-28T21:17:28.772Z,87.97
2022-09-28T21:20:37.760Z,87.74
2022-09-28T21:23:46.938Z,87.52
2022-09-28T21:27:01.728Z,87.73
2022-09-28T21:30:03.807Z,87.25
2022-09-28T21:33:18.727Z,87.51
2022-09-28T21:36:20.491Z,87.82
2022-09-28T21:39:34.712Z,88.45
2022-09-28T21:42:49.788Z,88.06
2022-09-28T21:45:59.827Z,87.92
2022-09-28T21:49:09.949Z,87.75
2022-09-28T21:52:24.783Z,88.26
2022-09-28T21:55:26.567Z,88.52
2022-09-28T21:58:42.762Z,88.85
2022-09-28T22:01:50.810Z,88.81
2022-09-28T22:05:05.768Z,88.94
2022-09-28T22:08:14.639Z,88.99
2022-09-28T22:11:26.780Z,88.78
2022-09-28T22:14:41.815Z,88.77
2022-09-28T22:17:50.395Z,88.94
2022-09-28T22:21:08.780Z,90.66
2022-09-28T22:24:23.757Z,90.14
2022-09-28T22:27:38.790Z,89.44
2022-09-28T22:30:40.600Z,89.11
2022-09-28T22:33:55.788Z,89.27
2022-09-28T22:37:04.850Z,89.52
2022-09-28T22:40:19.814Z,89.45
2022-09-28T22:43:28.388Z,89.59
2022-09-28T22:46:36.822Z,89.94
2022-09-28T22:49:45.315Z,89.53
2022-09-28T22:53:07.791Z,89.60
2022-09-28T22:56:12.531Z,89.31
2022-09-28T22:59:29.828Z,89.37
2022-09-28T23:02:38.394Z,89.53
2022-09-28T23:05:46.840Z,89.57
2022-09-28T23:09:01.781Z,90.01
2022-09-28T23:12:09.803Z,90.03
2022-09-28T23:15:18.381Z,89.78
2022-09-28T23:18:35.792Z,89.15
2022-09-28T23:21:37.790Z,89.15
2022-09-28T23:24:52.803Z,90.62
2022-09-28T23:28:01.548Z,91.19
2022-09-28T23:31:19.866Z,90.86
2022-09-28T23:34:28.493Z,90.10
2022-09-28T23:37:36.843Z,90.87
2022-09-28T23:40:52.854Z,90.21
2022-09-28T23:44:07.811Z,90.62
2022-09-28T23:47:09.527Z,90.69
2022-09-28T23:50:24.816Z,90.06
2022-09-28T23:53:46.823Z,90.86
2022-09-28T23:56:54.844Z,90.25
